Time;durP1;ratioP1;P1;durP2;ratioP2;P2;SDS_P1;SDS_P2;PMS_P1;PMS_P2;Temp;Humidity;BMP_temperature;BMP_pressure;BME280_temperature;BME280_humidity;BME280_pressure;Samples;Min_cycle;Max_cycle;Signal;HPM_P1;HPM_P2
2023/08/04 00:00:37;;;;;;;10.52;2.20;;;;;;;-146.25;100.00;52327.66;2087583;28;35330;-67
2023/08/04 00:01:41;;;;;;;9.40;2.55;;;;;;;-146.25;100.00;52347.91;2087531;28;34770;-67
2023/08/04 00:02:43;;;;;;;7.13;1.90;;;;;;;-146.25;100.00;52319.53;2087584;28;31866;-67
2023/08/04 00:03:45;;;;;;;8.45;2.03;;;;;;;-146.25;100.00;52341.84;2087649;28;34021;-67
2023/08/04 00:04:47;;;;;;;5.38;1.65;;;;;;;-146.25;100.00;52319.53;2088011;28;36912;-67
2023/08/04 00:05:49;;;;;;;8.65;2.10;;;;;;;-146.25;100.00;52339.81;2088198;28;20921;-67
2023/08/04 00:06:51;;;;;;;8.23;2.25;;;;;;;-146.25;100.00;52360.09;2087296;28;36865;-69
2023/08/04 00:07:54;;;;;;;7.25;2.33;;;;;;;-146.25;100.00;52301.28;2087306;28;34197;-66
2023/08/04 00:08:58;;;;;;;7.75;2.15;;;;;;;-146.25;100.00;52317.50;2087724;28;20131;-66
2023/08/04 00:10:03;;;;;;;11.10;2.60;;;;;;;-146.25;100.00;52305.34;2087517;28;34871;-66
2023/08/04 00:11:05;;;;;;;10.05;2.22;;;;;;;-146.25;100.00;52313.44;2087405;28;29943;-66
2023/08/04 00:12:09;;;;;;;8.68;2.20;;;;;;;-146.25;100.00;52360.09;2088521;28;20255;-66
2023/08/04 00:13:11;;;;;;;5.57;2.28;;;;;;;-146.25;100.00;52345.91;2088300;28;20073;-66
2023/08/04 00:14:13;;;;;;;10.85;2.17;;;;;;;-146.25;100.00;52315.47;2087621;28;29109;-65
2023/08/04 00:15:16;;;;;;;7.97;2.38;;;;;;;-146.25;100.00;52333.72;2087379;28;33388;-66
2023/08/04 00:16:18;;;;;;;7.95;2.75;;;;;;;-146.25;100.00;52317.50;2087835;28;32787;-65
2023/08/04 00:17:20;;;;;;;6.63;2.30;;;;;;;-146.25;100.00;52370.22;2087445;28;36127;-66
2023/08/04 00:18:22;;;;;;;8.85;2.50;;;;;;;-146.25;100.00;52343.88;2087724;28;36873;-66
2023/08/04 00:19:23;;;;;;;7.53;2.55;;;;;;;-146.25;100.00;52331.69;2087678;28;28601;-65
2023/08/04 00:20:25;;;;;;;8.20;2.47;;;;;;;-146.25;100.00;52351.97;2087041;28;33559;-66
2023/08/04 00:21:27;;;;;;;14.75;2.78;;;;;;;-146.25;100.00;52329.66;2086987;28;32974;-67
2023/08/04 00:22:29;;;;;;;8.23;2.28;;;;;;;-146.25;100.00;52349.94;2087566;28;32996;-66
2023/08/04 00:23:30;;;;;;;6.20;2.40;;;;;;;-146.25;100.00;52303.31;2087186;28;35186;-66
2023/08/04 00:24:35;;;;;;;11.00;2.50;;;;;;;-146.25;100.00;52335.75;2087901;28;34570;-68
2023/08/04 00:25:36;;;;;;;6.38;2.67;;;;;;;-146.25;100.00;52311.44;2087639;28;32830;-67
2023/08/04 00:26:38;;;;;;;15.63;3.20;;;;;;;-146.25;100.00;52345.91;2087905;28;36633;-67
2023/08/04 00:27:40;;;;;;;10.38;2.80;;;;;;;-146.25;100.00;52325.63;2088279;28;30645;-67
2023/08/04 00:28:41;;;;;;;9.23;2.70;;;;;;;-146.25;100.00;52335.75;2087198;28;29129;-68
2023/08/04 00:29:43;;;;;;;11.90;3.42;;;;;;;-146.25;100.00;52331.69;2087027;28;26297;-68
2023/08/04 00:30:45;;;;;;;8.23;2.88;;;;;;;-146.25;100.00;52347.91;2087945;28;25361;-67
2023/08/04 00:31:47;;;;;;;9.13;3.03;;;;;;;-146.25;100.00;52305.34;2087363;28;20997;-68
2023/08/04 00:32:49;;;;;;;12.32;3.80;;;;;;;-146.25;100.00;52313.44;2087053;28;28729;-68
2023/08/04 00:33:51;;;;;;;7.93;2.80;;;;;;;-146.25;100.00;52333.72;2087044;28;31283;-67
2023/08/04 00:34:52;;;;;;;14.20;3.42;;;;;;;-146.25;100.00;52382.38;2079112;28;27260;-67
2023/08/04 00:35:57;;;;;;;12.40;3.28;;;;;;;-146.25;100.00;52323.59;2087631;28;20041;-67
2023/08/04 00:36:59;;;;;;;12.48;3.90;;;;;;;-146.25;100.00;52317.50;2087390;28;20038;-67
2023/08/04 00:38:01;;;;;;;10.20;3.70;;;;;;;-146.25;100.00;52325.63;2087651;28;20033;-67
2023/08/04 00:39:03;;;;;;;11.00;3.35;;;;;;;-146.25;100.00;52329.66;2088330;28;20049;-68
2023/08/04 00:40:06;;;;;;;14.32;3.50;;;;;;;-146.25;100.00;52331.69;2087724;28;24697;-67
2023/08/04 00:41:10;;;;;;;13.65;3.30;;;;;;;-146.25;100.00;52305.34;2087962;28;23704;-68
2023/08/04 00:42:12;;;;;;;10.07;3.42;;;;;;;-146.25;100.00;52287.09;2088165;28;20886;-68
2023/08/04 00:43:14;;;;;;;10.02;3.17;;;;;;;-146.25;100.00;52313.44;2086913;28;34115;-67
2023/08/04 00:44:16;;;;;;;13.88;3.33;;;;;;;-146.25;100.00;52299.25;2078923;28;24766;-68
2023/08/04 00:45:17;;;;;;;14.98;3.55;;;;;;;-146.25;100.00;52321.56;2086755;28;33440;-69
2023/08/04 00:46:19;;;;;;;18.05;3.55;;;;;;;-146.25;100.00;52313.44;2087563;28;22100;-68
2023/08/04 00:47:26;;;;;;;13.65;3.35;;;;;;;-146.25;100.00;52295.19;2078931;28;26118;-68
2023/08/04 00:48:28;;;;;;;11.52;3.85;;;;;;;-146.25;100.00;52313.44;2080461;28;36228;-68
2023/08/04 00:49:31;;;;;;;9.80;2.83;;;;;;;-146.25;100.00;52327.66;2095045;28;26865;-68
2023/08/04 00:50:35;;;;;;;10.25;2.90;;;;;;;-146.25;100.00;52323.59;2088693;28;20050;-68
2023/08/04 00:51:37;;;;;;;11.82;3.22;;;;;;;-146.25;100.00;52335.75;2088974;28;35008;-68
2023/08/04 00:52:39;;;;;;;10.63;3.53;;;;;;;-146.25;100.00;52368.19;2088122;28;21431;-68
2023/08/04 00:53:41;;;;;;;11.60;3.30;;;;;;;-146.25;100.00;52327.66;2088521;28;24842;-68
2023/08/04 00:54:45;;;;;;;8.57;3.10;;;;;;;-146.25;100.00;52287.09;2089178;28;26157;-68
2023/08/04 00:55:50;;;;;;;11.35;3.67;;;;;;;-146.25;100.00;52311.44;2088876;28;20033;-68
2023/08/04 00:56:54;;;;;;;11.65;3.63;;;;;;;-146.25;100.00;52311.44;2089299;28;24019;-68
2023/08/04 00:57:58;;;;;;;13.98;3.47;;;;;;;-146.25;100.00;52349.94;2088629;28;27667;-68
2023/08/04 00:59:00;;;;;;;12.60;3.20;;;;;;;-146.25;100.00;52349.94;2088503;28;21971;-68
2023/08/04 01:00:03;;;;;;;10.50;3.42;;;;;;;-146.25;100.00;52323.59;2088373;28;27163;-68
2023/08/04 01:01:04;;;;;;;15.68;3.80;;;;;;;-146.25;100.00;52323.59;2080574;28;20160;-68
2023/08/04 01:02:07;;;;;;;12.73;3.50;;;;;;;-146.25;100.00;52303.31;2088759;28;20065;-68
2023/08/04 01:03:09;;;;;;;13.43;3.22;;;;;;;-146.25;100.00;52347.91;2088964;28;26436;-68
2023/08/04 01:04:11;;;;;;;13.57;3.10;;;;;;;-146.25;100.00;52291.16;2088245;28;33203;-69
2023/08/04 01:05:13;;;;;;;10.13;3.60;;;;;;;-146.25;100.00;52347.91;2080002;28;30736;-68
2023/08/04 01:06:48;;;;;;;12.70;3.40;;;;;;;-146.25;100.00;52343.88;2088549;28;25191;-68
2023/08/04 01:07:59;;;;;;;11.30;3.67;;;;;;;-146.25;100.00;52315.47;2087976;28;34080;-68
2023/08/04 01:09:02;;;;;;;16.33;3.75;;;;;;;-146.25;100.00;52331.69;2085980;28;20041;-68
2023/08/04 01:10:45;;;;;;;11.43;3.13;;;;;;;-146.25;100.00;52329.66;2088710;28;20188;-68
2023/08/04 01:12:00;;;;;;;14.98;3.03;;;;;;;-146.25;100.00;52364.13;2088206;28;27943;-68
2023/08/04 01:13:07;;;;;;;7.65;3.13;;;;;;;-146.25;100.00;52309.41;2082710;28;31476;-68
2023/08/04 01:14:10;;;;;;;10.70;3.03;;;;;;;-146.25;100.00;52347.91;2088319;28;30068;-68
2023/08/04 01:15:14;;;;;;;11.35;3.55;;;;;;;-146.25;100.00;52311.44;2088354;28;26812;-67
2023/08/04 01:16:17;;;;;;;15.88;4.10;;;;;;;-146.25;100.00;52276.97;2088840;28;26518;-68
2023/08/04 01:17:30;;;;;;;15.95;3.15;;;;;;;-146.25;100.00;52287.09;2087883;28;24706;-68
2023/08/04 01:18:32;;;;;;;10.20;3.13;;;;;;;-146.25;100.00;52321.56;2088763;28;28482;-68
2023/08/04 01:19:33;;;;;;;12.45;3.47;;;;;;;-146.25;100.00;52299.25;2088980;28;27666;-68
2023/08/04 01:20:36;;;;;;;11.98;3.13;;;;;;;-146.25;100.00;52323.59;2088562;28;21297;-68
2023/08/04 01:21:42;;;;;;;12.27;3.50;;;;;;;-146.25;100.00;52305.34;2088068;28;35617;-68
2023/08/04 01:22:44;;;;;;;14.82;3.63;;;;;;;-146.25;100.00;52289.13;2088775;28;23731;-68
2023/08/04 01:23:46;;;;;;;14.52;3.53;;;;;;;-146.25;100.00;52327.66;2097061;28;22164;-68
2023/08/04 01:24:50;;;;;;;10.02;3.58;;;;;;;-146.25;100.00;52327.66;2088491;28;25614;-68
2023/08/04 01:25:53;;;;;;;9.48;3.42;;;;;;;-146.25;100.00;52301.28;2088795;28;20474;-68
2023/08/04 01:26:58;;;;;;;11.52;3.33;;;;;;;-146.25;100.00;52349.94;2088689;28;32498;-68
2023/08/04 01:28:04;;;;;;;6.97;2.97;;;;;;;-146.25;100.00;52327.66;2079419;28;34727;-68
2023/08/04 01:29:09;;;;;;;7.72;2.80;;;;;;;-146.25;100.00;52331.69;2073180;28;30397;-68
2023/08/04 01:30:21;;;;;;;8.38;3.08;;;;;;;-146.25;100.00;52327.66;2080582;28;28080;-69
2023/08/04 01:31:24;;;;;;;10.20;3.53;;;;;;;-146.25;100.00;52329.66;2082208;28;23369;-68
2023/08/04 01:32:26;;;;;;;13.95;3.95;;;;;;;-146.25;100.00;52303.31;2088157;28;30605;-68
2023/08/04 01:33:29;;;;;;;10.95;3.35;;;;;;;-146.25;100.00;52333.72;2079928;28;32421;-68
2023/08/04 01:34:31;;;;;;;13.90;3.58;;;;;;;-146.25;100.00;52356.03;2080231;28;33179;-68
2023/08/04 01:35:33;;;;;;;10.13;3.33;;;;;;;-146.25;100.00;52337.78;2097489;28;21223;-68
2023/08/04 01:36:35;;;;;;;9.18;3.60;;;;;;;-146.25;100.00;52295.19;2096276;28;30576;-68
2023/08/04 01:37:37;;;;;;;13.25;3.05;;;;;;;-146.25;100.00;52311.44;2089485;28;20037;-67
2023/08/04 01:38:39;;;;;;;13.00;3.42;;;;;;;-146.25;100.00;52309.41;2088296;28;22602;-67
2023/08/04 01:39:41;;;;;;;12.43;3.28;;;;;;;-146.25;100.00;52341.84;2088562;28;20151;-67
2023/08/04 01:40:43;;;;;;;11.15;3.38;;;;;;;-146.25;100.00;52333.72;2088618;28;25648;-68
2023/08/04 01:41:45;;;;;;;14.82;3.42;;;;;;;-146.25;100.00;52341.84;2088497;28;35856;-67
2023/08/04 01:42:47;;;;;;;11.77;3.78;;;;;;;-146.25;100.00;52341.84;2089155;28;20937;-68
2023/08/04 01:43:49;;;;;;;12.00;3.30;;;;;;;-146.25;100.00;52311.44;2088679;28;27358;-68
2023/08/04 01:44:51;;;;;;;10.50;3.30;;;;;;;-146.25;100.00;52354.00;2088223;28;29380;-68
2023/08/04 01:45:52;;;;;;;10.88;3.35;;;;;;;-146.25;100.00;52299.25;2088489;28;22126;-67
2023/08/04 01:46:54;;;;;;;8.98;3.47;;;;;;;-146.25;100.00;52309.41;2080532;28;25494;-68
2023/08/04 01:47:58;;;;;;;10.52;3.88;;;;;;;-146.25;100.00;52356.03;2088518;28;23781;-68
2023/08/04 01:49:02;;;;;;;12.00;3.17;;;;;;;-146.25;100.00;52354.00;2088761;28;20081;-68
2023/08/04 01:50:09;;;;;;;10.38;3.75;;;;;;;-146.25;100.00;52319.53;2089079;28;20557;-68
2023/08/04 01:51:14;;;;;;;14.18;3.90;;;;;;;-146.25;100.00;52329.66;2089248;28;20152;-67
2023/08/04 01:52:15;;;;;;;11.55;3.92;;;;;;;-146.25;100.00;52311.44;2088986;28;24273;-67
2023/08/04 01:53:17;;;;;;;13.55;3.65;;;;;;;-146.25;100.00;52323.59;2088700;28;27957;-68
2023/08/04 01:54:19;;;;;;;10.60;3.30;;;;;;;-146.25;100.00;52293.19;2088584;28;28957;-68
2023/08/04 01:55:20;;;;;;;12.25;3.65;;;;;;;-146.25;100.00;52329.66;2088808;28;26726;-68
2023/08/04 01:56:25;;;;;;;9.02;3.30;;;;;;;-146.25;100.00;52349.94;2079893;28;25325;-68
2023/08/04 01:57:26;;;;;;;11.85;3.50;;;;;;;-146.25;100.00;52343.88;2080227;28;32060;-68
2023/08/04 01:58:28;;;;;;;10.00;2.75;;;;;;;-146.25;100.00;52303.31;2089758;28;20049;-68
2023/08/04 01:59:30;;;;;;;6.75;3.25;;;;;;;-146.25;100.00;52297.22;2088737;28;20045;-68
2023/08/04 02:00:34;;;;;;;13.38;3.33;;;;;;;-146.25;100.00;52309.41;2089227;28;20134;-68
2023/08/04 02:01:36;;;;;;;11.30;3.30;;;;;;;-146.25;100.00;52295.19;2083894;28;22359;-68
2023/08/04 02:02:38;;;;;;;9.93;3.78;;;;;;;-146.25;100.00;52333.72;2087154;28;30037;-68
2023/08/04 02:03:42;;;;;;;11.43;3.47;;;;;;;-146.25;100.00;52337.78;2088242;28;37735;-68
2023/08/04 02:04:43;;;;;;;9.05;3.22;;;;;;;-146.25;100.00;52337.78;2096581;28;20948;-68
2023/08/04 02:05:48;;;;;;;9.20;3.40;;;;;;;-146.25;100.00;52327.66;2096284;28;20049;-68
2023/08/04 02:06:51;;;;;;;13.50;3.60;;;;;;;-146.25;100.00;52317.50;2088101;28;20053;-68
2023/08/04 02:07:53;;;;;;;10.57;3.22;;;;;;;-146.25;100.00;52339.81;2080385;28;20042;-67
2023/08/04 02:08:55;;;;;;;14.55;3.17;;;;;;;-146.25;100.00;52303.31;2088348;28;20175;-67
2023/08/04 02:09:59;;;;;;;10.23;3.50;;;;;;;-146.25;100.00;52317.50;2097007;28;20045;-67
2023/08/04 02:11:04;;;;;;;12.45;3.75;;;;;;;-146.25;100.00;52333.72;2089019;28;20041;-67
2023/08/04 02:12:06;;;;;;;11.70;3.45;;;;;;;-146.25;100.00;52327.66;2088702;28;26062;-68
2023/08/04 02:13:08;;;;;;;9.77;3.10;;;;;;;-146.25;100.00;52341.84;2089039;28;20045;-67
2023/08/04 02:14:11;;;;;;;13.20;3.50;;;;;;;-146.25;100.00;52319.53;2087546;28;31758;-67
2023/08/04 02:15:13;;;;;;;9.73;3.08;;;;;;;-146.25;100.00;52325.63;2088465;28;20883;-67
2023/08/04 02:16:14;;;;;;;10.00;3.22;;;;;;;-146.25;100.00;52323.59;2088018;28;34611;-67
2023/08/04 02:17:19;;;;;;;12.55;3.60;;;;;;;-146.25;100.00;52281.00;2088813;28;27065;-67
2023/08/04 02:18:20;;;;;;;6.07;2.80;;;;;;;-146.25;100.00;52349.94;2088799;28;20038;-67
2023/08/04 02:19:22;;;;;;;11.05;3.42;;;;;;;-146.25;100.00;52343.88;2088857;28;31154;-68
2023/08/04 02:20:26;;;;;;;7.85;2.58;;;;;;;-146.25;100.00;52339.81;2096922;28;20044;-68
2023/08/04 02:21:30;;;;;;;8.88;3.00;;;;;;;-146.25;100.00;52319.53;2096213;28;24524;-67
2023/08/04 02:22:32;;;;;;;9.85;3.13;;;;;;;-146.25;100.00;52331.69;2096366;28;20284;-67
2023/08/04 02:23:34;;;;;;;9.98;3.42;;;;;;;-146.25;100.00;52311.44;2088674;28;26834;-68
2023/08/04 02:24:36;;;;;;;8.80;3.25;;;;;;;-146.25;100.00;52315.47;2087402;28;32095;-68
2023/08/04 02:25:37;;;;;;;7.60;3.30;;;;;;;-146.25;100.00;52339.81;2087957;28;24342;-68
2023/08/04 02:26:39;;;;;;;14.27;3.65;;;;;;;-146.25;100.00;52317.50;2087524;28;30962;-67
2023/08/04 02:27:44;;;;;;;11.63;2.80;;;;;;;-146.25;100.00;52315.47;2096502;28;20043;-68
2023/08/04 02:28:46;;;;;;;6.93;2.97;;;;;;;-146.25;100.00;52335.75;2095758;28;20516;-67
2023/08/04 02:29:47;;;;;;;11.65;3.90;;;;;;;-146.25;100.00;52319.53;2087868;28;33957;-67
2023/08/04 02:30:49;;;;;;;5.88;3.15;;;;;;;-146.25;100.00;52339.81;2087617;28;28917;-67
2023/08/04 02:31:51;;;;;;;9.35;3.97;;;;;;;-146.25;100.00;52341.84;2086636;28;41181;-67
2023/08/04 02:32:54;;;;;;;7.63;3.20;;;;;;;-146.25;100.00;52319.53;2079666;28;20085;-68
2023/08/04 02:33:56;;;;;;;8.82;3.42;;;;;;;-146.25;100.00;52301.28;2079712;28;33943;-67
2023/08/04 02:34:57;;;;;;;8.38;3.30;;;;;;;-146.25;100.00;52315.47;2079875;28;20041;-67
2023/08/04 02:36:01;;;;;;;12.70;3.13;;;;;;;-146.25;100.00;52323.59;2079618;28;32056;-67
2023/08/04 02:37:04;;;;;;;10.73;3.50;;;;;;;-146.25;100.00;52323.59;2079701;28;24863;-67
2023/08/04 02:38:05;;;;;;;10.50;3.90;;;;;;;-146.25;100.00;52319.53;2072090;28;26572;-66
2023/08/04 02:39:07;;;;;;;9.45;3.50;;;;;;;-146.25;100.00;52311.44;2079748;28;29370;-67
2023/08/04 02:40:09;;;;;;;6.50;3.47;;;;;;;-146.25;100.00;52313.44;2080689;28;20202;-66
2023/08/04 02:41:13;;;;;;;13.90;3.88;;;;;;;-146.25;100.00;52331.69;2071227;28;29089;-67
2023/08/04 02:42:15;;;;;;;10.50;3.53;;;;;;;-146.25;100.00;52329.66;2072636;28;24056;-68
2023/08/04 02:43:17;;;;;;;13.13;4.00;;;;;;;-146.25;100.00;52323.59;2079440;28;31970;-67
2023/08/04 02:44:21;;;;;;;10.68;3.80;;;;;;;-146.25;100.00;52309.41;2080217;28;20185;-67
2023/08/04 02:45:23;;;;;;;11.27;3.90;;;;;;;-146.25;100.00;52331.69;2088054;28;20041;-67
2023/08/04 02:46:25;;;;;;;9.75;3.80;;;;;;;-146.25;100.00;52358.06;2079958;28;20152;-67
2023/08/04 02:47:27;;;;;;;10.75;3.42;;;;;;;-146.25;100.00;52325.63;2080447;28;20852;-67
2023/08/04 02:48:30;;;;;;;7.18;3.30;;;;;;;-146.25;100.00;52347.91;2079857;28;28605;-67
2023/08/04 02:49:32;;;;;;;10.52;3.65;;;;;;;-146.25;100.00;52331.69;2080845;28;20080;-66
2023/08/04 02:50:34;;;;;;;7.30;3.58;;;;;;;-146.25;100.00;52311.44;2080187;28;24811;-67
2023/08/04 02:51:38;;;;;;;9.90;3.33;;;;;;;-146.25;100.00;52323.59;2080349;28;20034;-67
2023/08/04 02:52:42;;;;;;;10.32;3.75;;;;;;;-146.25;100.00;52354.00;2080020;28;22381;-67
2023/08/04 02:53:46;;;;;;;8.25;3.53;;;;;;;-146.25;100.00;52343.88;2080177;28;35241;-67
2023/08/04 02:54:48;;;;;;;12.07;3.45;;;;;;;-146.25;100.00;52315.47;2079862;28;20093;-67
2023/08/04 02:55:49;;;;;;;11.27;3.63;;;;;;;-146.25;100.00;52335.75;2079779;28;20050;-67
2023/08/04 02:56:51;;;;;;;13.43;3.63;;;;;;;-146.25;100.00;52278.97;2087889;28;20041;-67
2023/08/04 02:57:55;;;;;;;7.03;3.35;;;;;;;-146.25;100.00;52281.00;2079487;28;20030;-67
2023/08/04 02:58:59;;;;;;;17.23;3.80;;;;;;;-146.25;100.00;52335.75;2079450;28;35909;-67
2023/08/04 03:00:02;;;;;;;13.38;4.07;;;;;;;-146.25;100.00;52364.13;2080232;28;20048;-67
2023/08/04 03:01:08;;;;;;;8.10;3.35;;;;;;;-146.25;100.00;52341.84;2080180;28;20826;-67
2023/08/04 03:02:10;;;;;;;10.82;3.67;;;;;;;-146.25;100.00;52335.75;2087737;28;20894;-67
2023/08/04 03:03:12;;;;;;;16.58;3.95;;;;;;;-146.25;100.00;52354.00;2086391;28;36396;-67
2023/08/04 03:04:14;;;;;;;5.82;3.10;;;;;;;-146.25;100.00;52351.97;2080188;28;34348;-67
2023/08/04 03:05:16;;;;;;;8.80;3.13;;;;;;;-146.25;100.00;52303.31;2080179;28;35146;-67
2023/08/04 03:06:17;;;;;;;13.93;3.80;;;;;;;-146.25;100.00;52291.16;2080601;28;30172;-67
2023/08/04 03:07:24;;;;;;;7.80;3.45;;;;;;;-146.25;100.00;52303.31;2079646;28;33815;-68
2023/08/04 03:08:27;;;;;;;6.85;3.35;;;;;;;-146.25;100.00;52295.19;2079846;28;32762;-67
2023/08/04 03:09:29;;;;;;;11.32;3.38;;;;;;;-146.25;100.00;52323.59;2079820;28;33508;-68
2023/08/04 03:10:31;;;;;;;7.60;3.35;;;;;;;-146.25;100.00;52311.44;2080257;28;20042;-67
2023/08/04 03:11:35;;;;;;;13.60;4.05;;;;;;;-146.25;100.00;52349.94;2079846;28;34687;-67
2023/08/04 03:12:37;;;;;;;7.93;3.20;;;;;;;-146.25;100.00;52337.78;2079642;28;34401;-68
2023/08/04 03:13:39;;;;;;;12.77;3.40;;;;;;;-146.25;100.00;52325.63;2080137;28;20034;-68
2023/08/04 03:14:40;;;;;;;9.63;3.50;;;;;;;-146.25;100.00;52319.53;2078981;28;36667;-67
2023/08/04 03:15:42;;;;;;;8.10;3.28;;;;;;;-146.25;100.00;52317.50;2080018;28;36629;-68
2023/08/04 03:16:44;;;;;;;9.48;3.25;;;;;;;-146.25;100.00;52337.78;2080484;28;20084;-67
2023/08/04 03:17:46;;;;;;;8.20;3.28;;;;;;;-146.25;100.00;52317.50;2079924;28;37119;-68
2023/08/04 03:18:47;;;;;;;8.68;3.28;;;;;;;-146.25;100.00;52319.53;2080182;28;33020;-67
2023/08/04 03:19:49;;;;;;;9.23;3.45;;;;;;;-146.25;100.00;52315.47;2079885;28;35042;-67
2023/08/04 03:20:53;;;;;;;14.45;3.95;;;;;;;-146.25;100.00;52315.47;2079483;28;39566;-68
2023/08/04 03:21:55;;;;;;;10.43;3.85;;;;;;;-146.25;100.00;52331.69;2080208;28;20201;-67
2023/08/04 03:23:00;;;;;;;11.15;3.03;;;;;;;-146.25;100.00;52313.44;2087143;28;36010;-68
2023/08/04 03:24:01;;;;;;;13.85;3.35;;;;;;;-146.25;100.00;52362.13;2087437;28;33849;-67
2023/08/04 03:25:08;;;;;;;9.95;3.28;;;;;;;-146.25;100.00;52327.66;2087138;28;32098;-68
2023/08/04 03:26:10;;;;;;;13.30;3.50;;;;;;;-146.25;100.00;52356.03;2080234;28;35843;-68
2023/08/04 03:27:12;;;;;;;7.90;2.88;;;;;;;-146.25;100.00;52321.56;2080198;28;33550;-68
2023/08/04 03:28:14;;;;;;;6.50;2.80;;;;;;;-146.25;100.00;52315.47;2079981;28;35880;-68
2023/08/04 03:29:15;;;;;;;10.00;3.28;;;;;;;-146.25;100.00;52319.53;2079785;28;34842;-67
2023/08/04 03:30:17;;;;;;;12.23;3.60;;;;;;;-146.25;100.00;52333.72;2080719;28;20774;-68
2023/08/04 03:31:19;;;;;;;7.00;3.70;;;;;;;-146.25;100.00;52335.75;2081146;28;38554;-68
2023/08/04 03:32:21;;;;;;;9.43;3.30;;;;;;;-146.25;100.00;52335.75;2087939;28;35289;-68
2023/08/04 03:33:23;;;;;;;12.10;3.85;;;;;;;-146.25;100.00;52349.94;2088706;28;20148;-68
2023/08/04 03:34:27;;;;;;;11.77;3.67;;;;;;;-146.25;100.00;52329.66;2088829;28;20774;-68
2023/08/04 03:35:30;;;;;;;11.77;3.65;;;;;;;-146.25;100.00;52305.34;2088197;28;32114;-68
2023/08/04 03:36:32;;;;;;;12.73;3.47;;;;;;;-146.25;100.00;52345.91;2088754;28;20600;-68
2023/08/04 03:37:34;;;;;;;10.40;3.70;;;;;;;-146.25;100.00;52343.88;2088026;28;36060;-68
2023/08/04 03:38:36;;;;;;;10.82;3.38;;;;;;;-146.25;100.00;52303.31;2088603;28;20041;-68
2023/08/04 03:39:38;;;;;;;9.43;3.60;;;;;;;-146.25;100.00;52362.13;2088172;28;38032;-68
2023/08/04 03:40:40;;;;;;;12.18;3.47;;;;;;;-146.25;100.00;52360.09;2088294;28;33286;-68
2023/08/04 03:41:44;;;;;;;7.07;3.50;;;;;;;-146.25;100.00;52291.16;2087347;28;35561;-68
2023/08/04 03:42:47;;;;;;;7.53;4.20;;;;;;;-146.25;100.00;52315.47;2079172;28;34958;-68
2023/08/04 03:43:49;;;;;;;12.00;3.78;;;;;;;-146.25;100.00;52351.97;2087305;28;37350;-68
2023/08/04 03:44:50;;;;;;;9.13;3.80;;;;;;;-146.25;100.00;52307.38;2088068;28;30628;-68
2023/08/04 03:45:53;;;;;;;8.88;3.40;;;;;;;-146.25;100.00;52351.97;2088226;28;31693;-68
2023/08/04 03:46:55;;;;;;;6.85;3.25;;;;;;;-146.25;100.00;52360.09;2087722;28;35570;-67
2023/08/04 03:47:56;;;;;;;16.15;4.53;;;;;;;-146.25;100.00;52319.53;2088337;28;29257;-68
2023/08/04 03:48:58;;;;;;;11.18;3.13;;;;;;;-146.25;100.00;52293.19;2088494;28;34124;-68
2023/08/04 03:50:01;;;;;;;11.95;3.30;;;;;;;-146.25;100.00;52303.31;2087828;28;38237;-68
2023/08/04 03:51:03;;;;;;;8.07;2.75;;;;;;;-146.25;100.00;52341.84;2088014;28;35542;-68
2023/08/04 03:52:05;;;;;;;12.43;3.95;;;;;;;-146.25;100.00;52345.91;2088319;28;20044;-68
2023/08/04 03:53:07;;;;;;;11.52;3.40;;;;;;;-146.25;100.00;52274.94;2087702;28;34109;-68
2023/08/04 03:54:09;;;;;;;12.70;3.70;;;;;;;-146.25;100.00;52339.81;2088250;28;32394;-68
2023/08/04 03:55:10;;;;;;;11.57;3.40;;;;;;;-146.25;100.00;52354.00;2088348;28;20917;-68
2023/08/04 03:56:12;;;;;;;14.95;3.95;;;;;;;-146.25;100.00;52347.91;2088119;28;35101;-68
2023/08/04 03:57:14;;;;;;;11.88;3.42;;;;;;;-146.25;100.00;52321.56;2087985;28;29297;-68
2023/08/04 03:58:16;;;;;;;7.50;3.47;;;;;;;-146.25;100.00;52343.88;2088493;28;20807;-68
2023/08/04 03:59:20;;;;;;;9.48;3.40;;;;;;;-146.25;100.00;52356.03;2088269;28;20033;-68
2023/08/04 04:00:22;;;;;;;9.70;3.80;;;;;;;-146.25;100.00;52315.47;2087867;28;39872;-68
2023/08/04 04:01:26;;;;;;;11.38;3.92;;;;;;;-146.25;100.00;52315.47;2087826;28;32142;-68
2023/08/04 04:02:28;;;;;;;10.20;3.50;;;;;;;-146.25;100.00;52321.56;2087547;28;38209;-67
2023/08/04 04:03:30;;;;;;;11.43;3.80;;;;;;;-146.25;100.00;52335.75;2087888;28;38645;-68
2023/08/04 04:04:32;;;;;;;12.82;3.80;;;;;;;-146.25;100.00;52321.56;2087343;28;31225;-68
2023/08/04 04:05:33;;;;;;;15.70;3.95;;;;;;;-146.25;100.00;52315.47;2087342;28;33337;-68
2023/08/04 04:06:35;;;;;;;12.00;4.03;;;;;;;-146.25;100.00;52327.66;2088133;28;28829;-67
2023/08/04 04:07:37;;;;;;;15.43;3.50;;;;;;;-146.25;100.00;52347.91;2087893;28;33244;-69
2023/08/04 04:08:39;;;;;;;11.68;3.72;;;;;;;-146.25;100.00;52327.66;2088118;28;35641;-68
2023/08/04 04:09:40;;;;;;;11.25;3.17;;;;;;;-146.25;100.00;52325.63;2087776;28;33916;-68
2023/08/04 04:10:42;;;;;;;11.25;3.53;;;;;;;-146.25;100.00;52315.47;2087875;28;38821;-67
2023/08/04 04:11:44;;;;;;;11.48;2.83;;;;;;;-146.25;100.00;52303.31;2088069;28;32140;-68
2023/08/04 04:12:50;;;;;;;11.73;3.50;;;;;;;-146.25;100.00;52299.25;2088492;28;20144;-68
2023/08/04 04:13:51;;;;;;;8.73;3.25;;;;;;;-146.25;100.00;52335.75;2087683;28;37905;-68
2023/08/04 04:14:53;;;;;;;8.43;2.97;;;;;;;-146.25;100.00;52347.91;2088473;28;20032;-68
2023/08/04 04:15:55;;;;;;;13.30;3.10;;;;;;;-146.25;100.00;52319.53;2087610;28;35339;-68
2023/08/04 04:16:57;;;;;;;6.68;3.40;;;;;;;-146.25;100.00;52337.78;2087731;28;32916;-67
2023/08/04 04:17:58;;;;;;;6.35;2.60;;;;;;;-146.25;100.00;52341.84;2087942;28;35789;-68
2023/08/04 04:19:00;;;;;;;9.48;3.17;;;;;;;-146.25;100.00;52311.44;2087818;28;39736;-68
2023/08/04 04:20:02;;;;;;;8.98;2.97;;;;;;;-146.25;100.00;52327.66;2088345;28;20401;-68
2023/08/04 04:21:04;;;;;;;9.48;3.50;;;;;;;-146.25;100.00;52333.72;2087059;28;39027;-67
2023/08/04 04:22:08;;;;;;;9.82;3.33;;;;;;;-146.25;100.00;52317.50;2086807;28;35491;-68
2023/08/04 04:23:10;;;;;;;13.68;3.67;;;;;;;-146.25;100.00;52335.75;2087188;28;33595;-68
2023/08/04 04:24:12;;;;;;;7.80;2.92;;;;;;;-146.25;100.00;52354.00;2086797;28;38375;-68
2023/08/04 04:25:14;;;;;;;10.00;2.90;;;;;;;-146.25;100.00;52327.66;2087723;28;36665;-68
2023/08/04 04:26:18;;;;;;;7.03;2.88;;;;;;;-146.25;100.00;52303.31;2089354;28;36578;-67
2023/08/04 04:27:19;;;;;;;8.18;2.60;;;;;;;-146.25;100.00;52307.38;2088999;28;37337;-68
2023/08/04 04:28:21;;;;;;;10.70;2.90;;;;;;;-146.25;100.00;52289.13;2089355;28;20033;-67
2023/08/04 04:29:23;;;;;;;15.25;3.22;;;;;;;-146.25;100.00;52347.91;2089326;28;37255;-67
2023/08/04 04:30:25;;;;;;;8.57;2.50;;;;;;;-146.25;100.00;52337.78;2088828;28;34000;-68
2023/08/04 04:31:27;;;;;;;7.78;2.78;;;;;;;-146.25;100.00;52313.44;2089169;28;33716;-68
2023/08/04 04:32:28;;;;;;;8.68;2.50;;;;;;;-146.25;100.00;52327.66;2088842;28;37115;-67
2023/08/04 04:33:30;;;;;;;8.77;2.92;;;;;;;-146.25;100.00;52358.06;2089370;28;35989;-67
2023/08/04 04:34:32;;;;;;;9.23;2.88;;;;;;;-146.25;100.00;52303.31;2088935;28;39206;-67
2023/08/04 04:35:34;;;;;;;10.90;2.97;;;;;;;-146.25;100.00;52317.50;2089238;28;34540;-68
2023/08/04 04:36:35;;;;;;;6.80;2.72;;;;;;;-146.25;100.00;52368.19;2089509;28;20049;-68
2023/08/04 04:37:37;;;;;;;13.02;3.28;;;;;;;-146.25;100.00;52321.56;2089218;28;40255;-79
2023/08/04 04:38:42;;;;;;;11.13;2.75;;;;;;;-146.25;100.00;52335.75;2089098;28;34975;-66
2023/08/04 04:39:43;;;;;;;9.50;3.42;;;;;;;-146.25;100.00;52351.97;2088730;28;34199;-67
2023/08/04 04:40:58;;;;;;;9.80;3.20;;;;;;;-146.25;100.00;52335.75;2088587;28;39411;-67
2023/08/04 04:42:00;;;;;;;10.13;3.08;;;;;;;-146.25;100.00;52337.78;2087914;28;32958;-68
2023/08/04 04:43:01;;;;;;;11.05;3.38;;;;;;;-146.25;100.00;52325.63;2088035;28;37167;-68
2023/08/04 04:44:03;;;;;;;7.80;2.55;;;;;;;-146.25;100.00;52335.75;2089223;28;33155;-67